createdAt,value
2018-12-21T00:02:10.393Z,76.94
2018-12-21T00:04:39.476Z,76.25
2018-12-21T00:07:08.511Z,76.79
2018-12-21T00:09:37.543Z,76.31
2018-12-21T00:12:06.607Z,76.51
2018-12-21T00:14:35.634Z,76.71
2018-12-21T00:19:43.337Z,76.81
2018-12-21T00:22:12.402Z,76.35
2018-12-21T00:24:41.443Z,75.85
2018-12-21T00:29:46.254Z,75.77
2018-12-21T00:32:20.883Z,75.53
2018-12-21T00:34:55.488Z,74.97
2018-12-21T00:37:30.090Z,74.58
2018-12-21T00:40:04.515Z,75.18
2018-12-21T00:42:44.204Z,76.14
2018-12-21T00:45:13.215Z,76.45
2018-12-21T00:47:42.266Z,76.51
2018-12-21T00:50:11.323Z,75.68
2018-12-21T00:52:40.498Z,75.83
2018-12-21T00:55:10.515Z,76.25
2018-12-21T00:57:39.584Z,75.93
2018-12-21T01:00:08.659Z,75.97
2018-12-21T01:02:37.687Z,76.01
2018-12-21T01:07:42.488Z,75.56
2018-12-21T01:10:11.558Z,76.18
2018-12-21T01:12:40.597Z,77.07
2018-12-21T01:15:11.638Z,76.44
2018-12-21T01:20:16.382Z,76.25
2018-12-21T01:22:45.428Z,76.36
2018-12-21T01:25:14.469Z,77.54
2018-12-21T01:27:43.990Z,77.06
2018-12-21T01:30:13.049Z,76.19
2018-12-21T01:32:42.148Z,76.34
2018-12-21T01:35:11.199Z,76.95
2018-12-21T01:37:40.250Z,77.46
2018-12-21T01:40:09.270Z,77.62
2018-12-21T01:42:38.330Z,77.45
2018-12-21T01:45:07.346Z,77.04
2018-12-21T01:47:36.383Z,77.13
2018-12-21T01:50:05.427Z,77.58
2018-12-21T01:52:34.461Z,76.48
2018-12-21T01:55:03.504Z,75.99
2018-12-21T01:57:32.548Z,75.88
2018-12-21T02:00:01.638Z,76.92
2018-12-21T02:02:30.699Z,75.60
2018-12-21T02:05:02.818Z,74.93
2018-12-21T02:07:31.864Z,76.33
2018-12-21T02:10:00.912Z,75.88
2018-12-21T02:12:29.962Z,76.05
2018-12-21T02:14:59.042Z,75.50
2018-12-21T02:17:28.128Z,76.06
2018-12-21T02:20:03.191Z,75.16
2018-12-21T02:22:32.209Z,74.60
2018-12-21T02:25:01.294Z,75.12
2018-12-21T02:27:30.343Z,75.50
2018-12-21T02:29:59.385Z,76.65
2018-12-21T02:32:28.450Z,76.41
2018-12-21T02:34:57.509Z,76.56
2018-12-21T02:37:26.551Z,76.03
2018-12-21T02:39:55.583Z,75.50
2018-12-21T02:42:24.665Z,75.99
2018-12-21T02:47:28.929Z,75.55
2018-12-21T02:49:58.020Z,75.20
2018-12-21T02:55:02.799Z,74.73
2018-12-21T02:57:31.835Z,74.78
2018-12-21T03:00:00.856Z,74.47
2018-12-21T03:02:29.895Z,75.36
2018-12-21T03:04:58.939Z,74.56
2018-12-21T03:07:28.010Z,74.28
2018-12-21T03:09:57.026Z,72.71
2018-12-21T03:14:11.612Z,74.09
2018-12-21T03:16:40.622Z,73.79
2018-12-21T03:19:09.667Z,74.00
2018-12-21T03:21:38.712Z,72.65
2018-12-21T03:24:07.755Z,72.93
2018-12-21T03:26:36.828Z,73.42
2018-12-21T03:29:05.881Z,74.26
2018-12-21T03:31:34.917Z,74.13
2018-12-21T03:34:04.170Z,74.08
2018-12-21T03:36:35.157Z,74.99
2018-12-21T03:39:07.590Z,75.04
2018-12-21T03:44:12.958Z,75.00
2018-12-21T03:46:42.000Z,75.66
2018-12-21T03:49:11.060Z,75.41
2018-12-21T03:51:40.086Z,75.45
2018-12-21T03:54:09.149Z,74.66
2018-12-21T03:56:38.179Z,74.90
2018-12-21T03:59:07.240Z,76.04
2018-12-21T04:01:36.313Z,75.45
2018-12-21T04:06:41.090Z,75.11
2018-12-21T04:09:10.244Z,75.65
2018-12-21T04:11:39.258Z,76.24
2018-12-21T04:14:08.318Z,76.56
2018-12-21T04:16:37.380Z,77.25
2018-12-21T04:19:06.426Z,77.16
2018-12-21T04:21:35.459Z,76.40
2018-12-21T04:24:05.451Z,75.87
2018-12-21T04:26:34.669Z,75.53
2018-12-21T04:29:03.704Z,75.25
2018-12-21T04:31:33.718Z,74.66
2018-12-21T04:34:02.772Z,74.60
2018-12-21T04:36:31.860Z,74.54
2018-12-21T04:41:39.686Z,74.70
2018-12-21T04:44:08.760Z,73.53
2018-12-21T04:46:37.941Z,73.98
2018-12-21T04:49:06.979Z,73.86
2018-12-21T04:51:37.065Z,74.31
2018-12-21T04:54:06.110Z,73.44
2018-12-21T04:56:35.154Z,72.69
2018-12-21T04:59:04.228Z,72.14
2018-12-21T05:01:33.290Z,72.56
2018-12-21T05:04:02.330Z,72.20
2018-12-21T05:06:31.367Z,72.69
2018-12-21T05:09:00.413Z,72.20
2018-12-21T05:11:29.498Z,72.27
2018-12-21T05:13:58.535Z,72.35
2018-12-21T05:16:27.600Z,72.10
2018-12-21T05:18:56.647Z,72.27
2018-12-21T05:21:25.704Z,72.36
2018-12-21T05:23:54.757Z,72.02
2018-12-21T05:26:24.655Z,72.07
2018-12-21T05:28:54.635Z,71.88
2018-12-21T05:31:28.315Z,72.50
2018-12-21T05:33:52.724Z,72.70
2018-12-21T05:36:21.778Z,72.40
2018-12-21T05:38:50.823Z,72.88
2018-12-21T05:41:19.880Z,73.14
2018-12-21T05:43:48.898Z,72.57
2018-12-21T05:46:18.015Z,72.60
2018-12-21T05:48:47.106Z,72.30
2018-12-21T05:51:16.363Z,72.00
2018-12-21T05:53:45.391Z,71.98
2018-12-21T05:59:08.270Z,71.87
2018-12-21T06:01:50.574Z,71.10
2018-12-21T06:07:02.912Z,71.27
2018-12-21T06:09:31.971Z,71.11
2018-12-21T06:12:01.041Z,71.48
2018-12-21T06:17:05.799Z,70.82
2018-12-21T06:19:34.844Z,70.46
2018-12-21T06:22:04.359Z,70.09
2018-12-21T06:24:33.473Z,69.74
2018-12-21T06:27:02.906Z,70.27
2018-12-21T06:29:32.999Z,70.01
2018-12-21T06:32:02.117Z,69.25
2018-12-21T06:37:06.956Z,67.70
2018-12-21T06:39:36.963Z,66.99
2018-12-21T06:42:06.063Z,66.75
2018-12-21T06:44:35.102Z,67.20
2018-12-21T06:47:04.439Z,67.83
2018-12-21T06:49:33.478Z,67.77
2018-12-21T06:52:02.532Z,68.06
2018-12-21T06:54:31.583Z,67.55
2018-12-21T06:57:00.635Z,68.05
2018-12-21T06:59:29.707Z,68.38
2018-12-21T07:04:34.474Z,69.12
2018-12-21T07:07:03.528Z,69.23
2018-12-21T07:09:32.628Z,69.12
2018-12-21T07:12:01.686Z,68.56
2018-12-21T07:14:30.751Z,68.58
2018-12-21T07:16:59.770Z,68.66
2018-12-21T07:19:28.818Z,68.62
2018-12-21T07:22:00.279Z,69.02
2018-12-21T07:24:30.387Z,69.13
2018-12-21T07:26:59.402Z,69.65
2018-12-21T07:29:28.458Z,69.97
2018-12-21T07:32:00.413Z,70.56
2018-12-21T07:37:05.235Z,69.77
2018-12-21T07:42:09.954Z,69.03
2018-12-21T07:44:39.967Z,68.63
2018-12-21T07:47:09.015Z,68.26
2018-12-21T07:49:38.158Z,67.16
2018-12-21T07:52:07.231Z,67.03
2018-12-21T07:54:36.268Z,66.62
2018-12-21T07:57:05.325Z,66.78
2018-12-21T07:59:34.367Z,66.58
2018-12-21T08:02:03.416Z,65.87
2018-12-21T08:04:32.480Z,66.41
2018-12-21T08:07:03.405Z,66.39
2018-12-21T08:09:35.759Z,66.49
2018-12-21T08:12:04.791Z,66.73
2018-12-21T08:14:33.867Z,66.76
2018-12-21T08:17:03.068Z,66.92
2018-12-21T08:19:32.254Z,66.94
2018-12-21T08:22:01.226Z,66.31
2018-12-21T08:24:30.202Z,66.53
2018-12-21T08:29:34.933Z,66.05
2018-12-21T08:32:04.004Z,65.77
2018-12-21T08:34:33.701Z,65.46
2018-12-21T08:37:02.984Z,65.77
2018-12-21T08:39:32.058Z,64.79
2018-12-21T08:42:01.113Z,64.56
2018-12-21T08:44:30.249Z,64.23
2018-12-21T08:46:59.319Z,63.49
2018-12-21T08:49:28.383Z,63.42
2018-12-21T08:51:57.538Z,63.59
2018-12-21T08:54:26.582Z,63.90
2018-12-21T08:56:55.722Z,65.33
2018-12-21T08:59:24.971Z,65.14
2018-12-21T09:01:54.019Z,62.52
2018-12-21T09:04:23.080Z,62.54
2018-12-21T09:09:27.807Z,60.75
2018-12-21T09:11:56.850Z,61.86
2018-12-21T09:14:26.395Z,57.13
2018-12-21T09:16:55.481Z,53.24
2018-12-21T09:19:27.035Z,53.04
2018-12-21T09:21:56.250Z,53.66
2018-12-21T09:24:25.286Z,62.86
2018-12-21T09:26:54.346Z,70.97
2018-12-21T09:29:23.434Z,79.79
2018-12-21T09:31:53.567Z,86.84
2018-12-21T09:34:22.587Z,90.21
2018-12-21T09:36:51.653Z,91.86
2018-12-21T09:39:20.904Z,94.15
2018-12-21T09:44:25.693Z,93.72
2018-12-21T09:46:55.731Z,93.79
2018-12-21T09:49:24.878Z,96.49
2018-12-21T09:54:30.523Z,96.56
2018-12-21T09:56:59.541Z,95.02
2018-12-21T10:02:04.292Z,97.39
2018-12-21T10:04:33.364Z,97.04
2018-12-21T10:07:02.426Z,97.51
2018-12-21T10:12:07.250Z,99.05
2018-12-21T10:14:36.311Z,98.78
2018-12-21T10:17:05.339Z,100.00
2018-12-21T10:19:34.508Z,100.00
2018-12-21T10:22:06.249Z,100.00
2018-12-21T10:24:35.293Z,100.00
2018-12-21T10:27:04.345Z,100.00
2018-12-21T10:29:33.384Z,100.00
2018-12-21T10:32:02.451Z,100.00
2018-12-21T10:37:07.277Z,100.00
2018-12-21T10:39:36.307Z,100.00
2018-12-21T10:42:05.351Z,100.00
2018-12-21T10:44:35.377Z,100.00
2018-12-21T10:47:04.430Z,100.00
2018-12-21T10:49:33.534Z,100.00
2018-12-21T10:52:02.577Z,100.00
2018-12-21T10:54:32.224Z,100.00
2018-12-21T10:57:01.270Z,100.00
2018-12-21T10:59:30.891Z,100.00
2018-12-21T11:02:00.159Z,100.00
2018-12-21T11:04:32.053Z,100.00
2018-12-21T11:07:01.686Z,100.00
2018-12-21T11:09:30.761Z,100.00
2018-12-21T11:11:59.848Z,100.00
2018-12-21T11:14:28.894Z,100.00
2018-12-21T11:16:57.966Z,100.00
2018-12-21T11:19:27.071Z,100.00
2018-12-21T11:21:56.121Z,100.00
2018-12-21T11:24:35.601Z,100.00
2018-12-21T11:27:05.109Z,100.00
2018-12-21T11:29:34.164Z,100.00
2018-12-21T11:32:03.215Z,100.00
2018-12-21T11:34:32.275Z,100.00
2018-12-21T11:37:02.406Z,100.00
2018-12-21T11:39:31.447Z,100.00
2018-12-21T11:42:00.496Z,100.00
2018-12-21T11:44:29.530Z,100.00
2018-12-21T11:46:58.603Z,100.00
2018-12-21T11:49:34.859Z,100.00
2018-12-21T11:52:03.916Z,100.00
2018-12-21T11:57:11.683Z,100.00
2018-12-21T11:59:45.074Z,100.00
2018-12-21T12:02:19.177Z,100.00
2018-12-21T12:04:41.647Z,100.00
2018-12-21T12:07:10.720Z,100.00
2018-12-21T12:09:39.795Z,100.00
2018-12-21T12:12:17.555Z,100.00
2018-12-21T12:14:46.602Z,100.00
2018-12-21T12:19:34.736Z,100.00
2018-12-21T12:22:03.782Z,100.00
2018-12-21T12:24:32.921Z,100.00
2018-12-21T12:29:39.237Z,97.93
2018-12-21T12:32:08.282Z,95.43
2018-12-21T12:34:37.330Z,95.40
2018-12-21T12:37:06.476Z,95.32
2018-12-21T12:39:35.587Z,95.87
2018-12-21T12:42:04.639Z,95.07
2018-12-21T12:47:09.452Z,92.39
2018-12-21T12:52:14.174Z,92.24
2018-12-21T12:55:02.377Z,91.90
2018-12-21T12:57:23.343Z,89.49
2018-12-21T12:59:52.491Z,86.42
2018-12-21T13:02:21.510Z,85.08
2018-12-21T13:04:53.107Z,82.79
2018-12-21T13:09:58.855Z,78.66
2018-12-21T13:12:27.893Z,79.98
2018-12-21T13:14:56.940Z,77.78
2018-12-21T13:17:39.739Z,77.98
2018-12-21T13:20:18.337Z,78.64
2018-12-21T13:22:58.832Z,78.14
2018-12-21T13:25:32.700Z,78.37
2018-12-21T13:28:01.786Z,78.61
2018-12-21T13:30:30.887Z,79.12
2018-12-21T13:32:59.923Z,77.74
2018-12-21T13:35:29.135Z,78.93
2018-12-21T13:37:58.168Z,78.92
2018-12-21T13:40:27.273Z,79.03
2018-12-21T13:42:56.295Z,79.55
2018-12-21T13:45:25.331Z,78.82
2018-12-21T13:47:54.411Z,79.11
2018-12-21T13:52:59.219Z,80.48
2018-12-21T13:55:28.253Z,79.86
2018-12-21T13:57:57.318Z,80.72
2018-12-21T14:00:26.380Z,82.17
2018-12-21T14:02:55.433Z,82.03
2018-12-21T14:05:32.623Z,82.78
2018-12-21T14:08:01.653Z,84.73
2018-12-21T14:10:30.777Z,84.83
2018-12-21T14:12:59.797Z,86.79
2018-12-21T14:15:28.855Z,86.37
2018-12-21T14:17:58.827Z,85.08
2018-12-21T14:20:27.872Z,86.26
2018-12-21T14:22:56.963Z,85.36
2018-12-21T14:25:29.082Z,85.89
2018-12-21T14:30:31.093Z,85.10
2018-12-21T14:33:00.158Z,85.44
2018-12-21T14:35:29.183Z,84.62
2018-12-21T14:37:58.310Z,85.98
2018-12-21T14:40:27.367Z,85.70
2018-12-21T14:42:56.421Z,85.37
2018-12-21T14:45:25.473Z,85.76
2018-12-21T14:47:55.174Z,85.78
2018-12-21T14:50:24.239Z,86.08
2018-12-21T14:52:53.286Z,85.48
2018-12-21T14:55:28.197Z,84.68
2018-12-21T14:57:57.214Z,85.92
2018-12-21T15:00:28.543Z,87.23
2018-12-21T15:03:07.498Z,87.81
2018-12-21T15:05:36.538Z,87.83
2018-12-21T15:08:05.627Z,87.65
2018-12-21T15:10:43.748Z,85.81
2018-12-21T15:13:12.767Z,86.21
2018-12-21T15:15:41.852Z,85.34
2018-12-21T15:18:10.899Z,84.68
2018-12-21T15:20:40.132Z,85.98
2018-12-21T15:23:10.233Z,85.10
2018-12-21T15:25:46.050Z,85.20
2018-12-21T15:28:08.307Z,85.83
2018-12-21T15:30:37.406Z,87.15
2018-12-21T15:33:06.476Z,87.63
2018-12-21T15:36:43.543Z,90.14
2018-12-21T15:39:12.587Z,90.95
2018-12-21T15:41:41.651Z,91.19
2018-12-21T15:44:11.618Z,89.96
2018-12-21T15:46:41.649Z,88.52
2018-12-21T15:49:10.687Z,87.71
2018-12-21T15:51:39.784Z,86.17
2018-12-21T15:54:14.694Z,84.50
2018-12-21T15:56:51.687Z,84.46
2018-12-21T15:59:21.722Z,85.85
2018-12-21T16:04:26.986Z,83.43
2018-12-21T16:06:56.047Z,83.73
2018-12-21T16:09:25.124Z,83.61
2018-12-21T16:11:54.163Z,82.67
2018-12-21T16:14:23.196Z,82.53
2018-12-21T16:16:52.244Z,82.35
2018-12-21T16:19:31.434Z,82.25
2018-12-21T16:22:00.504Z,81.67
2018-12-21T16:24:29.537Z,81.35
2018-12-21T16:26:58.574Z,80.50
2018-12-21T16:29:27.679Z,81.40
2018-12-21T16:31:56.799Z,82.18
2018-12-21T16:34:25.869Z,82.33
2018-12-21T16:36:54.925Z,81.87
2018-12-21T16:39:24.022Z,81.85
2018-12-21T16:44:29.848Z,81.82
2018-12-21T16:46:58.893Z,82.18
2018-12-21T16:49:27.975Z,81.67
2018-12-21T16:51:57.035Z,81.37
2018-12-21T16:54:26.102Z,81.84
2018-12-21T16:56:55.139Z,82.53
2018-12-21T16:59:24.188Z,81.44
2018-12-21T17:01:53.230Z,82.08
2018-12-21T17:04:22.271Z,82.07
2018-12-21T17:06:51.327Z,82.03
2018-12-21T17:09:20.387Z,82.26
2018-12-21T17:11:49.694Z,82.61
2018-12-21T17:14:18.737Z,82.47
2018-12-21T17:16:47.791Z,82.61
2018-12-21T17:19:16.837Z,82.48
2018-12-21T17:21:45.913Z,81.47
2018-12-21T17:24:25.012Z,81.96
2018-12-21T17:26:54.535Z,82.91
2018-12-21T17:29:23.584Z,82.53
2018-12-21T17:31:52.640Z,82.29
2018-12-21T17:34:21.690Z,82.71
2018-12-21T17:36:50.758Z,83.10
2018-12-21T17:39:25.538Z,82.91
2018-12-21T17:42:00.254Z,83.14
2018-12-21T17:44:36.969Z,83.08
2018-12-21T17:47:09.522Z,83.43
2018-12-21T17:49:43.656Z,83.51
2018-12-21T17:52:16.154Z,82.37
2018-12-21T17:54:51.310Z,83.13
2018-12-21T17:57:25.524Z,84.05
2018-12-21T17:59:59.247Z,82.84
2018-12-21T18:02:32.259Z,84.08
2018-12-21T18:05:06.204Z,83.41
2018-12-21T18:07:41.795Z,83.84
2018-12-21T18:10:15.197Z,83.34
2018-12-21T18:12:49.919Z,83.36
2018-12-21T18:15:25.847Z,83.48
2018-12-21T18:17:58.431Z,83.36
2018-12-21T18:20:31.431Z,82.82
2018-12-21T18:23:04.898Z,83.21
2018-12-21T18:25:41.121Z,83.47
2018-12-21T18:28:16.131Z,83.31
2018-12-21T18:30:50.807Z,83.53
2018-12-21T18:33:23.907Z,82.84
2018-12-21T18:35:57.470Z,82.65
2018-12-21T18:41:11.121Z,82.63
2018-12-21T18:43:44.383Z,81.90
2018-12-21T18:46:17.991Z,81.20
2018-12-21T18:48:53.740Z,81.87
2018-12-21T18:51:30.414Z,82.94
2018-12-21T18:54:03.147Z,82.89
2018-12-21T18:56:46.971Z,82.97
2018-12-21T18:59:17.425Z,82.54
2018-12-21T19:04:30.256Z,83.34
2018-12-21T19:07:04.711Z,83.55
2018-12-21T19:09:39.311Z,83.14
2018-12-21T19:12:12.674Z,83.72
2018-12-21T19:14:45.091Z,83.78
2018-12-21T19:22:36.935Z,83.32
2018-12-21T19:25:10.543Z,83.67
2018-12-21T19:27:46.868Z,84.15
2018-12-21T19:32:56.728Z,83.74
2018-12-21T19:38:06.230Z,83.67
2018-12-21T19:40:41.158Z,83.60
2018-12-21T19:43:15.339Z,83.88
2018-12-21T19:45:58.483Z,84.16
2018-12-21T19:48:31.791Z,84.17
2018-12-21T19:51:07.902Z,83.87
2018-12-21T19:53:41.326Z,83.62
2018-12-21T19:56:16.925Z,84.14
2018-12-21T19:58:51.540Z,83.91
2018-12-21T20:01:25.687Z,83.77
2018-12-21T20:04:10.754Z,83.74
2018-12-21T20:06:46.302Z,83.69
2018-12-21T20:09:23.657Z,84.30
2018-12-21T20:12:01.375Z,83.44
2018-12-21T20:14:34.544Z,83.31
2018-12-21T20:17:08.488Z,83.62
2018-12-21T20:19:43.398Z,83.99
2018-12-21T20:22:18.194Z,83.94
2018-12-21T20:24:53.100Z,83.57
2018-12-21T20:27:27.583Z,83.03
2018-12-21T20:30:02.792Z,83.90
2018-12-21T20:32:37.285Z,83.91
2018-12-21T20:37:52.146Z,83.54
2018-12-21T20:40:32.693Z,84.00
2018-12-21T20:43:05.431Z,83.21
2018-12-21T20:45:40.453Z,83.37
2018-12-21T20:48:14.574Z,83.31
2018-12-21T20:50:53.181Z,83.39
2018-12-21T20:53:27.692Z,83.04
2018-12-21T20:58:36.912Z,83.30
2018-12-21T21:01:10.767Z,83.39
2018-12-21T21:03:44.749Z,83.37
2018-12-21T21:06:17.807Z,82.99
2018-12-21T21:08:53.087Z,82.53
2018-12-21T21:11:26.090Z,82.77
2018-12-21T21:19:16.093Z,82.38
2018-12-21T21:21:49.495Z,82.69
2018-12-21T21:24:23.414Z,81.96
2018-12-21T21:26:57.078Z,81.95
2018-12-21T21:29:37.809Z,82.29
2018-12-21T21:32:10.583Z,82.47
2018-12-21T21:34:45.193Z,82.77
2018-12-21T21:37:18.276Z,82.69
2018-12-21T21:39:52.510Z,83.87
2018-12-21T21:42:28.446Z,83.33
2018-12-21T21:47:40.606Z,83.53
2018-12-21T21:52:50.364Z,83.46
2018-12-21T21:58:01.140Z,83.31
2018-12-21T22:00:36.546Z,82.80
2018-12-21T22:03:12.041Z,82.66
2018-12-21T22:05:45.501Z,82.16
2018-12-21T22:11:01.784Z,82.52
2018-12-21T22:13:28.747Z,83.04
2018-12-21T22:16:03.334Z,83.30
2018-12-21T22:18:36.226Z,83.33
2018-12-21T22:21:15.639Z,82.61
2018-12-21T22:23:48.868Z,83.29
2018-12-21T22:26:22.114Z,83.12
2018-12-21T22:28:54.627Z,82.66
2018-12-21T22:34:06.579Z,83.33
2018-12-21T22:36:40.295Z,83.75
2018-12-21T22:41:51.326Z,83.49
2018-12-21T22:47:02.453Z,85.04
2018-12-21T22:49:35.982Z,85.13
2018-12-21T22:52:10.217Z,85.84
2018-12-21T22:54:43.975Z,85.04
2018-12-21T22:57:17.520Z,84.52
2018-12-21T22:59:52.630Z,84.45
2018-12-21T23:02:25.446Z,84.33
2018-12-21T23:04:59.059Z,84.58
2018-12-21T23:07:33.204Z,83.80
2018-12-21T23:10:08.326Z,84.31
2018-12-21T23:12:43.719Z,84.60
2018-12-21T23:15:18.347Z,84.23
2018-12-21T23:17:53.106Z,85.12
2018-12-21T23:20:26.094Z,85.68
2018-12-21T23:22:59.396Z,86.48
2018-12-21T23:25:34.056Z,88.75
2018-12-21T23:30:43.830Z,88.90
2018-12-21T23:33:17.217Z,87.18
2018-12-21T23:35:50.301Z,87.38
2018-12-21T23:38:22.432Z,87.09
2018-12-21T23:40:55.806Z,86.82
2018-12-21T23:43:28.814Z,86.55
2018-12-21T23:46:02.220Z,87.27
2018-12-21T23:48:40.199Z,91.22
2018-12-21T23:51:13.884Z,94.46
2018-12-21T23:53:49.837Z,93.77
2018-12-21T23:56:22.541Z,92.84
2018-12-21T23:58:56.777Z,91.92
